Sitka, AK

2:42 AM AKST on November 26, 2014 (GMT -0900)
Sitka Rocky Gutierrez | Change Station
CLOSE
Current Station
Airport
Location: Sitka,
Elevation: 20 ft
Nearby Weather Stations

Elev 20 ft 57.05 °N, 135.36 °W | Updated 5 minutes ago

Mostly Cloudy
Mostly Cloudy
31 °F
Feels Like 26 °F
N
5
Wind Variable Wind from NNE

Today
High -- | Low -- °F
--% Chance of Precip.
Yesterday
High -- | Low -- °F
Precip. -- in
8:06 AM 3:31 PM
Waxing Crescent, 19% visible
Pressure 30.21 in
Visibility 4.0 miles
Clouds Mostly Cloudy 600 ft
Windchill 26 °F
Dew Point 31 °F
Humidity 100%
Rainfall 0.00 in
Snow Depth Not available.
UV 0 out of 12
Pollen Not available.
Air Quality Not available.
Flu Activity Not available.
SPECI PASI 261137Z 03004KT 4SM BR BKN006 M01/M01 A3021 RMK AO2 I1000 T10061006

More Conditions Fewer Conditions

Pressure 30.21 in
Visibility 4.0 miles
Clouds Mostly Cloudy 600 ft
Windchill 26 °F
Dew Point 31 °F
Humidity 100%
Rainfall 0.00 in
Snow Depth Not available.
UV 0 out of 12
Pollen Not available.
Air Quality Not available.
Flu Activity Not available.
SPECI PASI 261137Z 03004KT 4SM BR BKN006 M01/M01 A3021 RMK AO2 I1000 T10061006

More Conditions Fewer Conditions

10-Day Weather Forecast

Almanac

Astronomy

Nov. 26, 2014 Rise Set
Actual Time
Civil Twilight
Nautical Twilight
Astronomical Twilight
Moon
Length of Visible Light
Length of Day
Tomorrow will be .
, % of the Moon is Illuminated

Today's Extremes

State Highs State Lows

Community

WunderPhotos

Upload Photos

1,773,708 photos uploaded!

WunderBlogs® & News

Nearby

Air Quality

  Air Quality AQ Index Pollutant
Not available.

Snow Depth

Station Depth Elevation

Earthquake Activity

City Distance Mag. Time & Date
Minimum magnitude displayed is 2.5.

Coastal Water Temperatures

Place Temperature

Nearby Weather Stations